Terminal Aerodrome Forecast
Issued by NWS

Home | Current Version | Previous Version | Text Only | Print | Product List | Glossary On
Versions: 1 2 3 4 5 6 7 8 9 10 11 12 13
000
FTUS43 KILX 211100
TAFCMI
TAF
KCMI 211131Z 2112/2212 19010KT P6SM SCT070 BKN150
     FM211700 23010KT P6SM VCSH BKN070
     FM212000 24012KT 6SM -SHRA VCTS SCT040CB BKN070
     FM220300 26012KT P6SM VCSH BKN050
     FM220600 33012KT P6SM SKC=

USA.gov is the U.S. government's official web portal to all federal, state and local government web resources and services.